Mary Alice, Kentucky
Current Conditions -  °F | °C
As of 5:55 PM on Thursday 20 Nov 2014 (Local Time) from KI35 Reporting Station
Clear Clear  
Wind Chill: 33°   Ceiling: Unl
Heat Index: 37°   Visibility: 10mi
Dew Point: 18°   Wind: 6mph
Humidity: 45%   Direction: 320°NW
Pressure: 30.12"   Gusts: NA
Location:  36.78°N, 83.33°W
Report Text: KI35 202255Z AUTO 32005KT 10SM CLR 03/M08 A3012 RMK AO1
Loading
Personal Weather Stations






























Interactive Weather Map New forecast layout! Learn more

10-Day Weather Forecast

Advertisements
Track Severe Weather on mobile